createdAt,value
2022-08-20T00:01:48.071Z,69.00
2022-08-20T00:04:16.122Z,69.20
2022-08-20T00:06:46.286Z,69.30
2022-08-20T00:09:14.253Z,69.40
2022-08-20T00:11:42.267Z,69.40
2022-08-20T00:14:11.611Z,69.50
2022-08-20T00:16:39.543Z,69.60
2022-08-20T00:19:08.642Z,69.70
2022-08-20T00:21:37.378Z,69.80
2022-08-20T00:24:06.058Z,69.70
2022-08-20T00:26:34.128Z,69.70
2022-08-20T00:29:02.165Z,69.60
2022-08-20T00:31:31.676Z,69.70
2022-08-20T00:33:59.689Z,69.60
2022-08-20T00:36:32.115Z,69.50
2022-08-20T00:39:01.049Z,69.40
2022-08-20T00:41:30.939Z,69.40
2022-08-20T00:44:06.657Z,69.40
2022-08-20T00:46:36.521Z,69.40
2022-08-20T00:49:07.958Z,69.40
2022-08-20T00:51:38.977Z,69.40
2022-08-20T00:54:10.862Z,69.40
2022-08-20T00:56:39.092Z,69.30
2022-08-20T00:59:11.376Z,69.30
2022-08-20T01:01:55.889Z,69.40
2022-08-20T01:04:26.238Z,69.40
2022-08-20T01:06:55.593Z,69.60
2022-08-20T01:09:33.302Z,69.50
2022-08-20T01:12:11.572Z,69.50
2022-08-20T01:14:44.797Z,69.70
2022-08-20T01:17:16.169Z,69.60
2022-08-20T01:19:45.541Z,69.70
2022-08-20T01:22:32.943Z,69.90
2022-08-20T01:25:05.703Z,70.40
2022-08-20T01:27:42.771Z,70.60
2022-08-20T01:30:11.372Z,70.60
2022-08-20T01:32:39.240Z,70.70
2022-08-20T01:35:07.523Z,70.50
2022-08-20T01:37:35.343Z,70.70
2022-08-20T01:40:03.999Z,70.80
2022-08-20T01:42:58.881Z,70.70
2022-08-20T01:45:28.625Z,70.60
2022-08-20T01:47:58.533Z,70.10
2022-08-20T01:50:28.391Z,69.90
2022-08-20T01:52:58.298Z,69.90
2022-08-20T01:55:27.583Z,69.90
2022-08-20T01:57:57.471Z,70.00
2022-08-20T02:00:26.371Z,70.10
2022-08-20T02:02:54.401Z,70.10
2022-08-20T02:05:22.341Z,70.20
2022-08-20T02:07:50.403Z,70.10
2022-08-20T02:10:19.227Z,70.20
2022-08-20T02:12:47.121Z,70.10
2022-08-20T02:15:16.808Z,70.00
2022-08-20T02:17:44.770Z,70.00
2022-08-20T02:20:14.957Z,70.20
2022-08-20T02:22:49.837Z,70.40
2022-08-20T02:25:19.349Z,70.40
2022-08-20T02:27:49.555Z,70.40
2022-08-20T02:30:27.745Z,70.40
2022-08-20T02:32:56.846Z,70.40
2022-08-20T02:35:26.232Z,70.30
2022-08-20T02:37:54.732Z,70.30
2022-08-20T02:40:30.991Z,70.30
2022-08-20T02:42:59.837Z,70.30
2022-08-20T02:45:30.046Z,70.40
2022-08-20T02:47:59.299Z,70.40
2022-08-20T02:50:28.300Z,70.40
2022-08-20T02:52:56.341Z,70.40
2022-08-20T02:55:27.792Z,70.50
2022-08-20T02:58:00.338Z,70.60
2022-08-20T03:00:35.000Z,70.50
2022-08-20T03:03:08.154Z,70.60
2022-08-20T03:05:36.940Z,70.70
2022-08-20T03:08:08.348Z,70.60
2022-08-20T03:10:36.850Z,70.70
2022-08-20T03:13:05.268Z,70.70
2022-08-20T03:15:34.965Z,70.70
2022-08-20T03:18:02.878Z,70.80
2022-08-20T03:20:31.217Z,70.90
2022-08-20T03:23:00.647Z,70.90
2022-08-20T03:25:29.088Z,71.00
2022-08-20T03:27:57.789Z,71.10
2022-08-20T03:30:31.141Z,71.10
2022-08-20T03:33:00.650Z,71.10
2022-08-20T03:35:29.958Z,71.30
2022-08-20T03:37:58.428Z,71.30
2022-08-20T03:40:27.569Z,71.40
2022-08-20T03:42:55.667Z,71.30
2022-08-20T03:45:24.070Z,71.30
2022-08-20T03:47:53.314Z,71.30
2022-08-20T03:50:23.776Z,71.10
2022-08-20T03:52:51.880Z,71.30
2022-08-20T03:55:20.400Z,71.30
2022-08-20T03:57:49.384Z,71.40
2022-08-20T04:00:20.742Z,71.50
2022-08-20T04:02:48.968Z,71.80
2022-08-20T04:05:16.977Z,72.00
2022-08-20T04:07:46.162Z,72.30
2022-08-20T04:10:14.101Z,72.40
2022-08-20T04:12:53.028Z,72.60
2022-08-20T04:15:21.292Z,72.70
2022-08-20T04:17:50.123Z,72.80
2022-08-20T04:20:22.355Z,72.90
2022-08-20T04:22:59.458Z,73.10
2022-08-20T04:25:29.869Z,73.20
2022-08-20T04:27:58.421Z,73.20
2022-08-20T04:30:26.855Z,73.40
2022-08-20T04:32:56.059Z,73.40
2022-08-20T04:35:25.529Z,73.40
2022-08-20T04:38:00.442Z,73.40
2022-08-20T04:40:46.327Z,73.40
2022-08-20T04:43:14.258Z,73.40
2022-08-20T04:45:42.535Z,73.20
2022-08-20T04:48:14.716Z,73.30
2022-08-20T04:50:44.849Z,73.50
2022-08-20T04:53:16.266Z,73.50
2022-08-20T04:55:44.409Z,73.70
2022-08-20T04:58:13.668Z,73.50
2022-08-20T05:00:42.058Z,73.50
2022-08-20T05:03:09.921Z,73.30
2022-08-20T05:05:38.187Z,73.10
2022-08-20T05:08:06.170Z,72.70
2022-08-20T05:10:49.265Z,72.50
2022-08-20T05:13:27.512Z,72.00
2022-08-20T05:15:56.186Z,72.10
2022-08-20T05:18:25.521Z,71.90
2022-08-20T05:20:53.887Z,71.80
2022-08-20T05:23:23.625Z,71.80
2022-08-20T05:25:52.827Z,71.50
2022-08-20T05:28:22.301Z,71.40
2022-08-20T05:30:51.011Z,71.30
2022-08-20T05:33:21.689Z,71.10
2022-08-20T05:35:51.046Z,71.00
2022-08-20T05:38:19.453Z,70.90
2022-08-20T05:40:47.919Z,70.90
2022-08-20T05:43:17.954Z,71.00
2022-08-20T05:45:46.776Z,71.00
2022-08-20T05:48:16.666Z,71.00
2022-08-20T05:50:46.498Z,70.40
2022-08-20T05:53:14.362Z,70.10
2022-08-20T05:55:43.070Z,70.10
2022-08-20T05:58:20.731Z,69.90
2022-08-20T06:00:50.719Z,69.70
2022-08-20T06:03:36.001Z,69.40
2022-08-20T06:06:04.922Z,69.40
2022-08-20T06:08:46.110Z,69.20
2022-08-20T06:11:14.031Z,69.00
2022-08-20T06:13:41.997Z,68.90
2022-08-20T06:16:11.299Z,68.60
2022-08-20T06:18:39.893Z,68.60
2022-08-20T06:21:07.808Z,68.90
2022-08-20T06:23:40.184Z,68.80
2022-08-20T06:26:29.631Z,68.80
2022-08-20T06:28:58.459Z,68.50
2022-08-20T06:31:27.972Z,68.60
2022-08-20T06:33:56.059Z,68.70
2022-08-20T06:36:24.956Z,68.80
2022-08-20T06:38:54.905Z,68.90
2022-08-20T06:41:22.870Z,70.00
2022-08-20T06:44:03.954Z,71.70
2022-08-20T06:46:33.349Z,72.30
2022-08-20T06:49:01.230Z,73.40
2022-08-20T06:51:29.321Z,74.50
2022-08-20T06:53:57.559Z,75.80
2022-08-20T06:56:25.560Z,76.60
2022-08-20T06:58:53.500Z,78.00
2022-08-20T07:01:22.147Z,78.30
2022-08-20T07:03:55.763Z,78.70
2022-08-20T07:06:25.463Z,78.90
2022-08-20T07:08:53.782Z,79.20
2022-08-20T07:11:27.342Z,78.70
2022-08-20T07:13:56.687Z,79.30
2022-08-20T07:16:24.989Z,79.50
2022-08-20T07:18:54.228Z,79.50
2022-08-20T07:21:22.209Z,79.20
2022-08-20T07:23:50.449Z,79.20
2022-08-20T07:26:18.359Z,79.40
2022-08-20T07:28:46.356Z,79.50
2022-08-20T07:31:32.076Z,80.00
2022-08-20T07:34:04.332Z,79.80
2022-08-20T07:36:32.527Z,80.00
2022-08-20T07:39:05.984Z,79.60
2022-08-20T07:41:34.477Z,79.80
2022-08-20T07:44:02.542Z,79.70
2022-08-20T07:46:31.639Z,78.90
2022-08-20T07:48:59.752Z,79.40
2022-08-20T07:51:29.469Z,79.40
2022-08-20T07:53:58.394Z,79.00
2022-08-20T07:56:26.690Z,78.50
2022-08-20T07:58:59.063Z,78.00
2022-08-20T08:01:29.514Z,77.60
2022-08-20T08:03:57.847Z,77.70
2022-08-20T08:06:29.374Z,76.80
2022-08-20T08:09:02.420Z,76.90
2022-08-20T08:11:30.575Z,76.10
2022-08-20T08:13:59.784Z,75.60
2022-08-20T08:16:28.882Z,74.90
2022-08-20T08:18:58.428Z,74.60
2022-08-20T08:21:26.651Z,74.40
2022-08-20T08:23:54.959Z,74.20
2022-08-20T08:26:24.175Z,72.20
2022-08-20T08:28:52.133Z,69.20
2022-08-20T08:31:20.033Z,69.30
2022-08-20T08:33:47.952Z,67.10
2022-08-20T08:36:16.898Z,67.10
2022-08-20T08:38:45.844Z,67.40
2022-08-20T08:41:16.684Z,68.60
2022-08-20T08:43:48.000Z,66.70
2022-08-20T08:46:18.968Z,64.80
2022-08-20T08:48:48.319Z,62.90
2022-08-20T08:51:17.763Z,63.20
2022-08-20T08:53:48.570Z,63.40
2022-08-20T08:56:16.562Z,63.00
2022-08-20T08:58:45.980Z,63.50
2022-08-20T09:01:55.653Z,64.00
2022-08-20T09:04:05.912Z,64.70
2022-08-20T09:06:33.910Z,64.40
2022-08-20T09:09:03.527Z,61.20
2022-08-20T09:11:31.952Z,61.20
2022-08-20T09:14:02.365Z,59.60
2022-08-20T09:16:37.380Z,59.90
2022-08-20T09:19:19.146Z,59.70
2022-08-20T09:21:47.055Z,60.00
2022-08-20T09:24:15.055Z,59.60
2022-08-20T09:26:42.952Z,60.60
2022-08-20T09:29:12.388Z,60.60
2022-08-20T09:31:40.419Z,61.10
2022-08-20T09:34:08.417Z,58.50
2022-08-20T09:36:36.334Z,56.80
2022-08-20T09:39:04.427Z,54.30
2022-08-20T09:41:33.820Z,55.30
2022-08-20T09:44:02.713Z,55.90
2022-08-20T09:46:32.073Z,55.10
2022-08-20T09:48:59.999Z,54.10
2022-08-20T09:51:28.787Z,54.70
2022-08-20T09:53:56.822Z,49.40
2022-08-20T09:56:26.264Z,46.30
2022-08-20T09:58:56.530Z,43.30
2022-08-20T10:01:27.011Z,44.40
2022-08-20T10:03:56.254Z,41.50
2022-08-20T10:06:24.164Z,43.30
2022-08-20T10:08:52.129Z,44.60
2022-08-20T10:11:20.025Z,43.50
2022-08-20T10:13:48.606Z,42.80
2022-08-20T10:16:16.573Z,43.20
2022-08-20T10:18:44.580Z,44.70
2022-08-20T10:21:13.880Z,45.30
2022-08-20T10:23:41.877Z,45.50
2022-08-20T10:26:10.287Z,42.80
2022-08-20T10:28:38.179Z,43.50
2022-08-20T10:31:07.245Z,43.50
2022-08-20T10:33:36.349Z,43.00
2022-08-20T10:36:07.182Z,44.40
2022-08-20T10:38:36.475Z,42.20
2022-08-20T10:41:04.974Z,41.90
2022-08-20T10:43:32.915Z,40.70
2022-08-20T10:46:00.835Z,40.90
2022-08-20T10:48:28.909Z,39.70
2022-08-20T10:50:56.783Z,38.50
2022-08-20T10:53:24.755Z,39.10
2022-08-20T10:55:55.023Z,40.00
2022-08-20T10:58:24.035Z,37.60
2022-08-20T11:00:51.997Z,38.40
2022-08-20T11:03:20.109Z,38.10
2022-08-20T11:05:48.319Z,39.10
2022-08-20T11:08:33.257Z,40.10
2022-08-20T11:11:03.989Z,40.70
2022-08-20T11:13:31.863Z,41.50
2022-08-20T11:15:59.814Z,40.80
2022-08-20T11:18:27.743Z,40.60
2022-08-20T11:20:56.063Z,40.30
2022-08-20T11:23:23.903Z,39.30
2022-08-20T11:25:52.135Z,38.70
2022-08-20T11:28:31.757Z,37.70
2022-08-20T11:31:00.692Z,35.80
2022-08-20T11:33:28.714Z,34.90
2022-08-20T11:35:56.698Z,33.60
2022-08-20T11:38:24.622Z,32.00
2022-08-20T11:40:52.515Z,30.70
2022-08-20T11:43:21.947Z,30.90
2022-08-20T11:45:51.404Z,31.00
2022-08-20T11:48:19.637Z,31.80
2022-08-20T11:50:47.680Z,31.90
2022-08-20T11:53:16.147Z,31.60
2022-08-20T11:55:44.161Z,32.20
2022-08-20T11:58:12.257Z,31.40
2022-08-20T12:00:42.054Z,32.00
2022-08-20T12:03:11.843Z,31.30
2022-08-20T12:05:42.657Z,32.10
2022-08-20T12:08:26.795Z,32.20
2022-08-20T12:10:56.049Z,31.40
2022-08-20T12:13:30.702Z,31.20
2022-08-20T12:16:13.241Z,30.90
2022-08-20T12:18:41.188Z,31.80
2022-08-20T12:21:09.263Z,31.10
2022-08-20T12:23:37.119Z,30.90
2022-08-20T12:26:05.072Z,30.90
2022-08-20T12:28:33.232Z,33.30
2022-08-20T12:31:01.143Z,33.80
2022-08-20T12:33:30.426Z,34.60
2022-08-20T12:35:58.544Z,34.20
2022-08-20T12:38:26.471Z,34.90
2022-08-20T12:40:54.459Z,35.70
2022-08-20T12:43:25.048Z,35.70
2022-08-20T12:45:53.341Z,34.60
2022-08-20T12:48:21.901Z,34.20
2022-08-20T12:50:52.672Z,33.70
2022-08-20T12:53:20.729Z,35.20
2022-08-20T12:55:48.852Z,35.70
2022-08-20T12:58:16.909Z,36.40
2022-08-20T13:00:50.674Z,36.00
2022-08-20T13:03:19.369Z,35.60
2022-08-20T13:05:47.792Z,36.60
2022-08-20T13:08:17.924Z,36.00
2022-08-20T13:10:46.273Z,34.80
2022-08-20T13:13:14.534Z,35.30
2022-08-20T13:15:42.537Z,35.50
2022-08-20T13:18:10.428Z,36.00
2022-08-20T13:20:38.467Z,36.40
2022-08-20T13:23:06.387Z,36.10
2022-08-20T13:25:35.736Z,35.60
2022-08-20T13:28:04.899Z,35.40
2022-08-20T13:30:33.064Z,35.70
2022-08-20T13:33:01.019Z,35.20
2022-08-20T13:35:30.257Z,35.10
2022-08-20T13:37:58.130Z,35.30
2022-08-20T13:40:26.291Z,34.30
2022-08-20T13:42:57.907Z,32.90
2022-08-20T13:45:25.968Z,32.20
2022-08-20T13:47:54.743Z,32.90
2022-08-20T13:50:23.911Z,32.10
2022-08-20T13:52:51.827Z,32.40
2022-08-20T13:55:21.209Z,32.80
2022-08-20T13:57:49.443Z,33.50
2022-08-20T14:00:30.216Z,33.10
2022-08-20T14:03:00.045Z,33.60
2022-08-20T14:05:28.249Z,32.20
2022-08-20T14:07:56.213Z,32.50
2022-08-20T14:10:26.867Z,31.20
2022-08-20T14:12:55.596Z,30.10
2022-08-20T14:15:25.003Z,30.40
2022-08-20T14:17:53.844Z,31.40
2022-08-20T14:20:22.685Z,33.40
2022-08-20T14:22:50.745Z,34.40
2022-08-20T14:25:19.750Z,35.60
2022-08-20T14:27:47.659Z,36.80
2022-08-20T14:30:16.844Z,36.70
2022-08-20T14:32:46.221Z,35.40
2022-08-20T14:35:14.502Z,35.20
2022-08-20T14:37:43.423Z,35.10
2022-08-20T14:40:12.785Z,33.50
2022-08-20T14:42:40.722Z,32.60
2022-08-20T14:45:13.313Z,32.80
2022-08-20T14:47:42.765Z,32.10
2022-08-20T14:50:13.385Z,32.30
2022-08-20T14:52:41.433Z,31.20
2022-08-20T14:55:10.616Z,31.20
2022-08-20T14:57:39.288Z,31.10
2022-08-20T15:00:09.789Z,31.60
2022-08-20T15:02:38.504Z,30.70
2022-08-20T15:05:07.658Z,30.40
2022-08-20T15:07:39.821Z,30.20
2022-08-20T15:10:09.688Z,30.10
2022-08-20T15:12:37.711Z,30.10
2022-08-20T15:15:15.809Z,30.10
2022-08-20T15:17:45.245Z,30.40
2022-08-20T15:20:20.240Z,31.00
2022-08-20T15:22:50.852Z,31.40
2022-08-20T15:25:20.316Z,31.90
2022-08-20T15:27:48.814Z,31.50
2022-08-20T15:30:18.378Z,30.60
2022-08-20T15:32:47.270Z,31.00
2022-08-20T15:35:17.244Z,30.50
2022-08-20T15:37:46.524Z,30.20
2022-08-20T15:40:17.166Z,28.80
2022-08-20T15:42:46.494Z,29.20
2022-08-20T15:45:21.887Z,28.30
2022-08-20T15:47:51.591Z,28.10
2022-08-20T15:50:23.972Z,28.50
2022-08-20T15:52:52.213Z,29.00
2022-08-20T15:55:21.678Z,28.80
2022-08-20T15:57:54.027Z,30.50
2022-08-20T16:00:22.816Z,33.10
2022-08-20T16:03:07.822Z,34.10
2022-08-20T16:05:43.973Z,34.30
2022-08-20T16:08:24.557Z,34.50
2022-08-20T16:10:58.818Z,35.10
2022-08-20T16:13:30.525Z,35.50
2022-08-20T16:16:01.814Z,35.30
2022-08-20T16:18:31.972Z,35.60
2022-08-20T16:21:03.622Z,35.80
2022-08-20T16:23:33.239Z,36.50
2022-08-20T16:26:09.972Z,36.60
2022-08-20T16:28:42.101Z,37.10
2022-08-20T16:31:14.047Z,37.50
2022-08-20T16:33:46.396Z,37.80
2022-08-20T16:36:20.798Z,37.90
2022-08-20T16:38:51.329Z,37.50
2022-08-20T16:41:23.019Z,38.10
2022-08-20T16:43:53.214Z,38.20
2022-08-20T16:46:22.179Z,37.70
2022-08-20T16:48:58.046Z,37.90
2022-08-20T16:51:38.675Z,38.30
2022-08-20T16:54:07.730Z,38.60
2022-08-20T16:56:39.323Z,39.10
2022-08-20T16:59:09.605Z,39.30
2022-08-20T17:01:37.973Z,39.70
2022-08-20T17:04:06.829Z,39.90
2022-08-20T17:06:37.726Z,40.30
2022-08-20T17:09:08.930Z,40.50
2022-08-20T17:11:39.861Z,40.50
2022-08-20T17:14:12.531Z,41.00
2022-08-20T17:16:42.469Z,41.60
2022-08-20T17:19:15.475Z,42.10
2022-08-20T17:21:43.902Z,42.90
2022-08-20T17:24:16.675Z,43.40
2022-08-20T17:26:50.458Z,44.00
2022-08-20T17:29:23.895Z,44.40
2022-08-20T17:31:53.032Z,44.80
2022-08-20T17:34:22.707Z,45.50
2022-08-20T17:36:53.483Z,45.90
2022-08-20T17:39:23.163Z,46.20
2022-08-20T17:41:53.721Z,46.60
2022-08-20T17:44:22.898Z,46.90
2022-08-20T17:46:52.310Z,47.20
2022-08-20T17:49:21.554Z,47.70
2022-08-20T17:51:51.010Z,47.90
2022-08-20T17:54:22.183Z,48.20
2022-08-20T17:56:53.226Z,48.60
2022-08-20T17:59:59.858Z,48.50
2022-08-20T18:02:16.099Z,48.70
2022-08-20T18:04:44.114Z,49.00
2022-08-20T18:07:14.990Z,49.40
2022-08-20T18:09:46.869Z,49.70
2022-08-20T18:12:32.892Z,50.00
2022-08-20T18:15:08.704Z,50.30
2022-08-20T18:17:46.963Z,50.50
2022-08-20T18:20:25.085Z,50.90
2022-08-20T18:22:55.638Z,51.10
2022-08-20T18:25:30.365Z,51.00
2022-08-20T18:28:03.190Z,51.30
2022-08-20T18:30:33.043Z,51.50
2022-08-20T18:33:05.986Z,51.80
2022-08-20T18:35:35.049Z,52.10
2022-08-20T18:38:13.490Z,52.50
2022-08-20T18:40:42.318Z,52.90
2022-08-20T18:43:13.874Z,53.30
2022-08-20T18:45:43.687Z,53.90
2022-08-20T18:48:21.127Z,54.10
2022-08-20T18:50:50.675Z,54.50
2022-08-20T18:53:21.022Z,54.70
2022-08-20T18:56:00.198Z,55.20
2022-08-20T18:58:30.405Z,55.40
2022-08-20T19:01:01.411Z,55.70
2022-08-20T19:03:31.088Z,56.20
2022-08-20T19:06:18.039Z,56.50
2022-08-20T19:08:52.461Z,56.70
2022-08-20T19:11:33.053Z,57.00
2022-08-20T19:14:10.088Z,57.40
2022-08-20T19:16:40.899Z,57.60
2022-08-20T19:19:15.306Z,58.00
2022-08-20T19:21:43.354Z,58.30
2022-08-20T19:24:12.678Z,58.50
2022-08-20T19:26:42.369Z,58.70
2022-08-20T19:29:11.647Z,58.90
2022-08-20T19:31:41.644Z,59.00
2022-08-20T19:34:20.006Z,59.20
2022-08-20T19:36:54.504Z,59.50
2022-08-20T19:39:25.632Z,59.90
2022-08-20T19:41:56.981Z,60.40
2022-08-20T19:44:26.756Z,60.20
2022-08-20T19:46:57.298Z,60.60
2022-08-20T19:49:28.313Z,60.90
2022-08-20T19:52:15.178Z,60.80
2022-08-20T19:54:47.759Z,61.20
2022-08-20T19:57:16.938Z,61.40
2022-08-20T19:59:58.621Z,61.90
2022-08-20T20:02:29.424Z,61.90
2022-08-20T20:04:58.083Z,62.00
2022-08-20T20:07:27.958Z,62.10
2022-08-20T20:09:57.239Z,62.20
2022-08-20T20:12:25.456Z,62.40
2022-08-20T20:14:54.302Z,62.80
2022-08-20T20:17:23.489Z,63.00
2022-08-20T20:19:56.602Z,63.10
2022-08-20T20:22:25.823Z,63.20
2022-08-20T20:25:03.556Z,63.30
2022-08-20T20:27:33.038Z,63.50
2022-08-20T20:30:01.796Z,63.50
2022-08-20T20:32:30.656Z,63.50
2022-08-20T20:35:00.901Z,63.80
2022-08-20T20:37:50.440Z,63.80
2022-08-20T20:40:24.309Z,64.00
2022-08-20T20:43:01.320Z,64.00
2022-08-20T20:45:31.700Z,64.30
2022-08-20T20:47:59.879Z,64.40
2022-08-20T20:50:30.921Z,64.70
2022-08-20T20:52:59.297Z,64.90
2022-08-20T20:55:28.611Z,65.10
2022-08-20T20:57:57.034Z,65.30
2022-08-20T21:00:25.960Z,65.50
2022-08-20T21:02:54.054Z,65.80
2022-08-20T21:05:24.993Z,66.00
2022-08-20T21:07:56.837Z,66.20
2022-08-20T21:10:27.693Z,66.40
2022-08-20T21:12:56.013Z,66.80
2022-08-20T21:15:25.561Z,66.90
2022-08-20T21:17:54.062Z,67.40
2022-08-20T21:20:22.658Z,67.60
2022-08-20T21:22:51.133Z,67.50
2022-08-20T21:25:21.063Z,67.80
2022-08-20T21:27:50.974Z,67.90
2022-08-20T21:30:19.581Z,68.00
2022-08-20T21:32:47.739Z,68.20
2022-08-20T21:35:15.925Z,68.40
2022-08-20T21:37:43.864Z,68.50
2022-08-20T21:40:12.931Z,68.80
2022-08-20T21:42:44.182Z,69.30
2022-08-20T21:45:18.419Z,69.60
2022-08-20T21:47:48.846Z,69.60
2022-08-20T21:50:18.604Z,69.60
2022-08-20T21:52:55.086Z,69.60
2022-08-20T21:55:27.980Z,69.80
2022-08-20T21:57:57.775Z,69.70
2022-08-20T22:00:40.567Z,69.80
2022-08-20T22:03:08.651Z,71.10
2022-08-20T22:05:41.418Z,71.50
2022-08-20T22:08:09.918Z,71.30
2022-08-20T22:10:37.914Z,71.60
2022-08-20T22:13:07.493Z,72.00
2022-08-20T22:15:35.645Z,72.10
2022-08-20T22:18:03.573Z,72.20
2022-08-20T22:20:31.830Z,72.30
2022-08-20T22:23:00.780Z,72.20
2022-08-20T22:25:28.762Z,72.50
2022-08-20T22:27:56.843Z,72.60
2022-08-20T22:30:26.300Z,72.60
2022-08-20T22:32:56.625Z,73.00
2022-08-20T22:35:24.744Z,73.20
2022-08-20T22:37:52.633Z,73.50
2022-08-20T22:40:20.737Z,73.70
2022-08-20T22:42:48.768Z,73.80
2022-08-20T22:45:16.912Z,74.20
2022-08-20T22:47:46.282Z,74.30
2022-08-20T22:50:15.308Z,74.70
2022-08-20T22:52:43.462Z,75.00
2022-08-20T22:55:11.461Z,75.30
2022-08-20T22:57:39.787Z,75.30
2022-08-20T23:00:11.683Z,75.60
2022-08-20T23:02:40.498Z,75.20
2022-08-20T23:05:13.116Z,75.20
2022-08-20T23:07:41.239Z,75.30
2022-08-20T23:10:09.513Z,75.40
2022-08-20T23:12:37.549Z,75.60
2022-08-20T23:15:06.296Z,75.80
2022-08-20T23:17:35.263Z,75.90
2022-08-20T23:20:04.668Z,76.00
2022-08-20T23:22:34.031Z,76.30
2022-08-20T23:25:02.123Z,76.30
2022-08-20T23:27:30.074Z,76.40
2022-08-20T23:29:58.106Z,76.70
2022-08-20T23:32:26.232Z,76.90
2022-08-20T23:34:54.192Z,76.90
2022-08-20T23:37:22.123Z,76.90
2022-08-20T23:39:52.041Z,77.00
2022-08-20T23:42:19.962Z,77.10
2022-08-20T23:44:47.858Z,76.70
2022-08-20T23:47:19.342Z,76.70
2022-08-20T23:49:47.579Z,76.70
2022-08-20T23:52:15.593Z,76.50
2022-08-20T23:54:43.713Z,76.50
2022-08-20T23:57:12.997Z,76.20
2022-08-20T23:59:41.872Z,76.30
